sensor_id;sensor_type;location;lat;lon;timestamp;P1;durP1;ratioP1;P2;durP2;ratioP2
33152;SDS011;19509;43.862;26.176;2024-01-15T00:02:02;0.80;;;0.80;;
33152;SDS011;19509;43.862;26.176;2024-01-15T00:04:28;0.80;;;0.80;;
33152;SDS011;19509;43.862;26.176;2024-01-15T00:06:53;0.90;;;0.90;;
33152;SDS011;19509;43.862;26.176;2024-01-15T00:09:19;1.23;;;1.13;;
33152;SDS011;19509;43.862;26.176;2024-01-15T00:11:44;1.10;;;1.10;;
33152;SDS011;19509;43.862;26.176;2024-01-15T00:14:10;0.93;;;0.93;;
33152;SDS011;19509;43.862;26.176;2024-01-15T00:16:35;1.10;;;1.10;;
33152;SDS011;19509;43.862;26.176;2024-01-15T00:19:01;0.80;;;0.80;;
33152;SDS011;19509;43.862;26.176;2024-01-15T00:21:26;1.00;;;1.00;;
33152;SDS011;19509;43.862;26.176;2024-01-15T00:23:53;0.80;;;0.80;;
33152;SDS011;19509;43.862;26.176;2024-01-15T00:26:18;0.90;;;0.90;;
33152;SDS011;19509;43.862;26.176;2024-01-15T00:28:43;0.90;;;0.90;;
33152;SDS011;19509;43.862;26.176;2024-01-15T00:31:09;0.90;;;0.90;;
33152;SDS011;19509;43.862;26.176;2024-01-15T00:33:34;1.00;;;1.00;;
33152;SDS011;19509;43.862;26.176;2024-01-15T00:36:00;0.80;;;0.80;;
33152;SDS011;19509;43.862;26.176;2024-01-15T00:38:25;0.73;;;0.73;;
33152;SDS011;19509;43.862;26.176;2024-01-15T00:40:51;1.00;;;1.00;;
33152;SDS011;19509;43.862;26.176;2024-01-15T00:43:16;0.90;;;0.90;;
33152;SDS011;19509;43.862;26.176;2024-01-15T00:45:44;0.70;;;0.70;;
33152;SDS011;19509;43.862;26.176;2024-01-15T00:48:09;0.70;;;0.70;;
33152;SDS011;19509;43.862;26.176;2024-01-15T00:50:35;0.87;;;0.87;;
33152;SDS011;19509;43.862;26.176;2024-01-15T00:53:00;1.10;;;1.10;;
33152;SDS011;19509;43.862;26.176;2024-01-15T00:55:26;0.80;;;0.80;;
33152;SDS011;19509;43.862;26.176;2024-01-15T00:57:52;0.87;;;0.87;;
33152;SDS011;19509;43.862;26.176;2024-01-15T01:00:17;0.63;;;0.63;;
33152;SDS011;19509;43.862;26.176;2024-01-15T01:02:43;1.07;;;1.07;;
33152;SDS011;19509;43.862;26.176;2024-01-15T01:05:08;1.00;;;1.00;;
33152;SDS011;19509;43.862;26.176;2024-01-15T01:07:33;0.87;;;0.87;;
33152;SDS011;19509;43.862;26.176;2024-01-15T01:09:59;1.00;;;1.00;;
33152;SDS011;19509;43.862;26.176;2024-01-15T01:12:24;1.13;;;0.90;;
33152;SDS011;19509;43.862;26.176;2024-01-15T01:14:49;0.83;;;0.83;;
33152;SDS011;19509;43.862;26.176;2024-01-15T01:17:15;1.00;;;1.00;;
33152;SDS011;19509;43.862;26.176;2024-01-15T01:19:40;1.00;;;1.00;;
33152;SDS011;19509;43.862;26.176;2024-01-15T01:22:05;0.83;;;0.83;;
33152;SDS011;19509;43.862;26.176;2024-01-15T01:24:31;0.70;;;0.70;;
33152;SDS011;19509;43.862;26.176;2024-01-15T01:26:56;0.70;;;0.70;;
33152;SDS011;19509;43.862;26.176;2024-01-15T01:29:21;0.93;;;0.93;;
33152;SDS011;19509;43.862;26.176;2024-01-15T01:31:48;0.90;;;0.90;;
33152;SDS011;19509;43.862;26.176;2024-01-15T01:34:14;0.77;;;0.77;;
33152;SDS011;19509;43.862;26.176;2024-01-15T01:36:39;0.80;;;0.80;;
33152;SDS011;19509;43.862;26.176;2024-01-15T01:39:05;1.00;;;1.00;;
33152;SDS011;19509;43.862;26.176;2024-01-15T01:41:30;0.73;;;0.73;;
33152;SDS011;19509;43.862;26.176;2024-01-15T01:43:55;0.70;;;0.70;;
33152;SDS011;19509;43.862;26.176;2024-01-15T01:46:22;0.80;;;0.80;;
33152;SDS011;19509;43.862;26.176;2024-01-15T01:48:47;0.80;;;0.80;;
33152;SDS011;19509;43.862;26.176;2024-01-15T01:51:13;0.80;;;0.80;;
33152;SDS011;19509;43.862;26.176;2024-01-15T01:53:38;0.80;;;0.80;;
33152;SDS011;19509;43.862;26.176;2024-01-15T01:56:03;0.70;;;0.70;;
33152;SDS011;19509;43.862;26.176;2024-01-15T01:58:29;0.80;;;0.80;;
33152;SDS011;19509;43.862;26.176;2024-01-15T02:00:55;0.83;;;0.83;;
33152;SDS011;19509;43.862;26.176;2024-01-15T02:03:21;0.90;;;0.90;;
33152;SDS011;19509;43.862;26.176;2024-01-15T02:05:47;0.80;;;0.80;;
33152;SDS011;19509;43.862;26.176;2024-01-15T02:08:13;0.90;;;0.90;;
33152;SDS011;19509;43.862;26.176;2024-01-15T02:10:39;0.80;;;0.80;;
33152;SDS011;19509;43.862;26.176;2024-01-15T02:13:04;0.83;;;0.83;;
33152;SDS011;19509;43.862;26.176;2024-01-15T02:15:30;0.63;;;0.63;;
33152;SDS011;19509;43.862;26.176;2024-01-15T02:20:23;0.70;;;0.70;;
33152;SDS011;19509;43.862;26.176;2024-01-15T02:22:49;0.90;;;0.90;;
33152;SDS011;19509;43.862;26.176;2024-01-15T02:25:14;1.00;;;1.00;;
33152;SDS011;19509;43.862;26.176;2024-01-15T02:27:39;1.13;;;1.13;;
33152;SDS011;19509;43.862;26.176;2024-01-15T02:30:05;0.90;;;0.90;;
33152;SDS011;19509;43.862;26.176;2024-01-15T02:32:31;0.90;;;0.90;;
33152;SDS011;19509;43.862;26.176;2024-01-15T02:34:56;0.90;;;0.90;;
33152;SDS011;19509;43.862;26.176;2024-01-15T02:37:22;0.80;;;0.80;;
33152;SDS011;19509;43.862;26.176;2024-01-15T02:39:47;0.80;;;0.80;;
33152;SDS011;19509;43.862;26.176;2024-01-15T02:42:13;0.90;;;0.90;;
33152;SDS011;19509;43.862;26.176;2024-01-15T02:44:38;0.87;;;0.87;;
33152;SDS011;19509;43.862;26.176;2024-01-15T02:47:03;0.83;;;0.83;;
33152;SDS011;19509;43.862;26.176;2024-01-15T02:49:30;1.00;;;1.00;;
33152;SDS011;19509;43.862;26.176;2024-01-15T02:51:57;0.70;;;0.70;;
33152;SDS011;19509;43.862;26.176;2024-01-15T02:54:22;0.70;;;0.70;;
33152;SDS011;19509;43.862;26.176;2024-01-15T02:56:48;0.80;;;0.80;;
33152;SDS011;19509;43.862;26.176;2024-01-15T02:59:13;1.00;;;1.00;;
33152;SDS011;19509;43.862;26.176;2024-01-15T03:01:39;0.80;;;0.80;;
33152;SDS011;19509;43.862;26.176;2024-01-15T03:04:04;0.80;;;0.80;;
33152;SDS011;19509;43.862;26.176;2024-01-15T03:06:29;0.83;;;0.83;;
33152;SDS011;19509;43.862;26.176;2024-01-15T03:08:55;0.77;;;0.77;;
33152;SDS011;19509;43.862;26.176;2024-01-15T03:11:20;0.97;;;0.97;;
33152;SDS011;19509;43.862;26.176;2024-01-15T03:13:45;0.80;;;0.80;;
33152;SDS011;19509;43.862;26.176;2024-01-15T03:16:11;0.93;;;0.93;;
33152;SDS011;19509;43.862;26.176;2024-01-15T03:18:36;0.80;;;0.80;;
33152;SDS011;19509;43.862;26.176;2024-01-15T03:21:02;1.00;;;1.00;;
33152;SDS011;19509;43.862;26.176;2024-01-15T03:23:27;0.80;;;0.80;;
33152;SDS011;19509;43.862;26.176;2024-01-15T03:25:52;1.00;;;1.00;;
33152;SDS011;19509;43.862;26.176;2024-01-15T03:28:18;0.90;;;0.90;;
33152;SDS011;19509;43.862;26.176;2024-01-15T03:30:43;0.77;;;0.77;;
33152;SDS011;19509;43.862;26.176;2024-01-15T03:33:09;1.00;;;1.00;;
33152;SDS011;19509;43.862;26.176;2024-01-15T03:35:34;0.83;;;0.83;;
33152;SDS011;19509;43.862;26.176;2024-01-15T03:37:59;0.80;;;0.80;;
33152;SDS011;19509;43.862;26.176;2024-01-15T03:40:25;0.83;;;0.83;;
33152;SDS011;19509;43.862;26.176;2024-01-15T03:42:50;0.83;;;0.83;;
33152;SDS011;19509;43.862;26.176;2024-01-15T03:45:16;1.00;;;1.00;;
33152;SDS011;19509;43.862;26.176;2024-01-15T03:47:41;0.70;;;0.70;;
33152;SDS011;19509;43.862;26.176;2024-01-15T03:50:06;0.70;;;0.70;;
33152;SDS011;19509;43.862;26.176;2024-01-15T03:52:32;1.00;;;1.00;;
33152;SDS011;19509;43.862;26.176;2024-01-15T03:54:57;0.80;;;0.80;;
33152;SDS011;19509;43.862;26.176;2024-01-15T03:57:23;0.90;;;0.90;;
33152;SDS011;19509;43.862;26.176;2024-01-15T03:59:48;0.83;;;0.83;;
33152;SDS011;19509;43.862;26.176;2024-01-15T04:02:13;0.87;;;0.87;;
33152;SDS011;19509;43.862;26.176;2024-01-15T04:04:42;0.83;;;0.83;;
33152;SDS011;19509;43.862;26.176;2024-01-15T04:07:08;0.90;;;0.90;;
33152;SDS011;19509;43.862;26.176;2024-01-15T04:09:34;0.83;;;0.83;;
33152;SDS011;19509;43.862;26.176;2024-01-15T04:11:59;1.10;;;1.10;;
33152;SDS011;19509;43.862;26.176;2024-01-15T04:14:24;1.07;;;1.07;;
33152;SDS011;19509;43.862;26.176;2024-01-15T04:16:50;1.10;;;1.10;;
33152;SDS011;19509;43.862;26.176;2024-01-15T04:19:15;0.90;;;0.90;;
33152;SDS011;19509;43.862;26.176;2024-01-15T04:21:41;1.00;;;1.00;;
33152;SDS011;19509;43.862;26.176;2024-01-15T04:24:06;0.80;;;0.80;;
33152;SDS011;19509;43.862;26.176;2024-01-15T04:26:32;1.07;;;1.07;;
33152;SDS011;19509;43.862;26.176;2024-01-15T04:28:57;1.00;;;1.00;;
33152;SDS011;19509;43.862;26.176;2024-01-15T04:31:24;0.80;;;0.80;;
33152;SDS011;19509;43.862;26.176;2024-01-15T04:33:50;1.47;;;1.47;;
33152;SDS011;19509;43.862;26.176;2024-01-15T04:36:15;3.57;;;3.47;;
33152;SDS011;19509;43.862;26.176;2024-01-15T04:38:40;1.20;;;1.20;;
33152;SDS011;19509;43.862;26.176;2024-01-15T04:41:06;1.10;;;1.10;;
33152;SDS011;19509;43.862;26.176;2024-01-15T04:43:31;1.20;;;1.20;;
33152;SDS011;19509;43.862;26.176;2024-01-15T04:45:57;0.70;;;0.70;;
33152;SDS011;19509;43.862;26.176;2024-01-15T04:48:22;1.10;;;1.10;;
33152;SDS011;19509;43.862;26.176;2024-01-15T04:50:48;0.80;;;0.80;;
33152;SDS011;19509;43.862;26.176;2024-01-15T04:53:13;0.80;;;0.80;;
33152;SDS011;19509;43.862;26.176;2024-01-15T04:55:39;1.00;;;1.00;;
33152;SDS011;19509;43.862;26.176;2024-01-15T04:58:04;0.90;;;0.90;;
33152;SDS011;19509;43.862;26.176;2024-01-15T05:00:29;1.23;;;1.23;;
33152;SDS011;19509;43.862;26.176;2024-01-15T05:02:55;1.10;;;1.10;;
33152;SDS011;19509;43.862;26.176;2024-01-15T05:05:21;0.97;;;0.97;;
33152;SDS011;19509;43.862;26.176;2024-01-15T05:07:46;0.97;;;0.97;;
33152;SDS011;19509;43.862;26.176;2024-01-15T05:10:12;1.20;;;1.20;;
33152;SDS011;19509;43.862;26.176;2024-01-15T05:12:37;0.90;;;0.90;;
33152;SDS011;19509;43.862;26.176;2024-01-15T05:15:03;1.10;;;1.10;;
33152;SDS011;19509;43.862;26.176;2024-01-15T05:17:28;0.93;;;0.93;;
33152;SDS011;19509;43.862;26.176;2024-01-15T05:19:53;0.90;;;0.90;;
33152;SDS011;19509;43.862;26.176;2024-01-15T05:22:19;1.10;;;1.10;;
33152;SDS011;19509;43.862;26.176;2024-01-15T05:24:46;1.00;;;1.00;;
33152;SDS011;19509;43.862;26.176;2024-01-15T05:27:11;1.17;;;1.17;;
33152;SDS011;19509;43.862;26.176;2024-01-15T05:29:36;0.77;;;0.77;;
33152;SDS011;19509;43.862;26.176;2024-01-15T05:32:02;0.90;;;0.90;;
33152;SDS011;19509;43.862;26.176;2024-01-15T05:34:27;1.10;;;1.10;;
33152;SDS011;19509;43.862;26.176;2024-01-15T05:36:52;1.10;;;1.10;;
33152;SDS011;19509;43.862;26.176;2024-01-15T05:39:18;1.00;;;1.00;;
33152;SDS011;19509;43.862;26.176;2024-01-15T05:41:43;0.90;;;0.90;;
33152;SDS011;19509;43.862;26.176;2024-01-15T05:44:09;0.90;;;0.90;;
33152;SDS011;19509;43.862;26.176;2024-01-15T05:46:35;1.00;;;1.00;;
33152;SDS011;19509;43.862;26.176;2024-01-15T05:49:00;1.07;;;1.07;;
33152;SDS011;19509;43.862;26.176;2024-01-15T05:51:25;1.73;;;1.73;;
33152;SDS011;19509;43.862;26.176;2024-01-15T05:53:51;2.23;;;2.23;;
33152;SDS011;19509;43.862;26.176;2024-01-15T05:56:16;2.20;;;2.20;;
33152;SDS011;19509;43.862;26.176;2024-01-15T05:58:41;1.57;;;1.57;;
33152;SDS011;19509;43.862;26.176;2024-01-15T06:01:07;1.97;;;1.97;;
33152;SDS011;19509;43.862;26.176;2024-01-15T06:03:32;1.40;;;1.40;;
33152;SDS011;19509;43.862;26.176;2024-01-15T06:05:57;1.30;;;1.30;;
33152;SDS011;19509;43.862;26.176;2024-01-15T06:08:23;1.20;;;1.20;;
33152;SDS011;19509;43.862;26.176;2024-01-15T06:10:48;1.50;;;1.50;;
33152;SDS011;19509;43.862;26.176;2024-01-15T06:13:13;1.40;;;1.40;;
33152;SDS011;19509;43.862;26.176;2024-01-15T06:15:39;1.67;;;1.67;;
33152;SDS011;19509;43.862;26.176;2024-01-15T06:18:04;1.33;;;1.33;;
33152;SDS011;19509;43.862;26.176;2024-01-15T06:20:30;1.30;;;1.30;;
33152;SDS011;19509;43.862;26.176;2024-01-15T06:22:55;1.70;;;1.70;;
33152;SDS011;19509;43.862;26.176;2024-01-15T06:25:20;1.20;;;1.20;;
33152;SDS011;19509;43.862;26.176;2024-01-15T06:27:46;1.03;;;1.03;;
33152;SDS011;19509;43.862;26.176;2024-01-15T06:30:11;1.20;;;1.20;;
33152;SDS011;19509;43.862;26.176;2024-01-15T06:32:37;2.10;;;1.80;;
33152;SDS011;19509;43.862;26.176;2024-01-15T06:35:02;3.43;;;3.33;;
33152;SDS011;19509;43.862;26.176;2024-01-15T06:37:28;2.03;;;2.03;;
33152;SDS011;19509;43.862;26.176;2024-01-15T06:39:53;1.50;;;1.50;;
33152;SDS011;19509;43.862;26.176;2024-01-15T06:42:19;1.60;;;1.60;;
33152;SDS011;19509;43.862;26.176;2024-01-15T06:44:47;1.60;;;1.60;;
33152;SDS011;19509;43.862;26.176;2024-01-15T06:47:12;1.73;;;1.73;;
33152;SDS011;19509;43.862;26.176;2024-01-15T06:49:37;2.23;;;2.23;;
33152;SDS011;19509;43.862;26.176;2024-01-15T06:52:03;1.57;;;1.57;;
33152;SDS011;19509;43.862;26.176;2024-01-15T06:54:28;1.33;;;1.33;;
33152;SDS011;19509;43.862;26.176;2024-01-15T06:56:53;1.13;;;1.13;;
33152;SDS011;19509;43.862;26.176;2024-01-15T06:59:19;1.20;;;1.20;;
33152;SDS011;19509;43.862;26.176;2024-01-15T07:01:44;1.10;;;1.10;;
33152;SDS011;19509;43.862;26.176;2024-01-15T07:04:09;0.90;;;0.90;;
33152;SDS011;19509;43.862;26.176;2024-01-15T07:06:35;1.00;;;1.00;;
33152;SDS011;19509;43.862;26.176;2024-01-15T07:09:00;0.90;;;0.90;;
33152;SDS011;19509;43.862;26.176;2024-01-15T07:11:25;0.93;;;0.93;;
33152;SDS011;19509;43.862;26.176;2024-01-15T07:13:51;0.90;;;0.90;;
33152;SDS011;19509;43.862;26.176;2024-01-15T07:16:16;0.80;;;0.80;;
33152;SDS011;19509;43.862;26.176;2024-01-15T07:18:42;0.90;;;0.90;;
33152;SDS011;19509;43.862;26.176;2024-01-15T07:21:07;2.07;;;2.07;;
33152;SDS011;19509;43.862;26.176;2024-01-15T07:23:33;1.83;;;1.83;;
33152;SDS011;19509;43.862;26.176;2024-01-15T07:25:58;1.17;;;1.17;;
33152;SDS011;19509;43.862;26.176;2024-01-15T07:28:23;1.00;;;1.00;;
33152;SDS011;19509;43.862;26.176;2024-01-15T07:30:49;1.20;;;1.20;;
33152;SDS011;19509;43.862;26.176;2024-01-15T07:33:14;1.40;;;1.40;;
33152;SDS011;19509;43.862;26.176;2024-01-15T07:35:40;1.57;;;1.57;;
33152;SDS011;19509;43.862;26.176;2024-01-15T07:38:05;1.40;;;1.40;;
33152;SDS011;19509;43.862;26.176;2024-01-15T07:40:30;1.40;;;1.40;;
33152;SDS011;19509;43.862;26.176;2024-01-15T07:42:56;1.13;;;1.13;;
33152;SDS011;19509;43.862;26.176;2024-01-15T07:45:21;1.47;;;1.47;;
33152;SDS011;19509;43.862;26.176;2024-01-15T07:47:46;1.20;;;1.20;;
33152;SDS011;19509;43.862;26.176;2024-01-15T07:50:12;1.00;;;1.00;;
33152;SDS011;19509;43.862;26.176;2024-01-15T07:52:38;1.00;;;1.00;;
33152;SDS011;19509;43.862;26.176;2024-01-15T07:55:03;0.80;;;0.80;;
33152;SDS011;19509;43.862;26.176;2024-01-15T07:57:30;0.93;;;0.93;;
33152;SDS011;19509;43.862;26.176;2024-01-15T07:59:55;0.70;;;0.70;;
33152;SDS011;19509;43.862;26.176;2024-01-15T08:02:21;0.80;;;0.80;;
33152;SDS011;19509;43.862;26.176;2024-01-15T08:04:46;1.13;;;1.13;;
33152;SDS011;19509;43.862;26.176;2024-01-15T08:07:12;1.93;;;1.93;;
33152;SDS011;19509;43.862;26.176;2024-01-15T08:09:38;1.57;;;1.57;;
33152;SDS011;19509;43.862;26.176;2024-01-15T08:12:03;1.10;;;1.10;;
33152;SDS011;19509;43.862;26.176;2024-01-15T08:14:31;1.07;;;1.07;;
33152;SDS011;19509;43.862;26.176;2024-01-15T08:16:56;1.03;;;1.03;;
33152;SDS011;19509;43.862;26.176;2024-01-15T08:19:21;1.07;;;1.07;;
33152;SDS011;19509;43.862;26.176;2024-01-15T08:21:47;0.90;;;0.90;;
33152;SDS011;19509;43.862;26.176;2024-01-15T08:24:12;1.10;;;1.10;;
33152;SDS011;19509;43.862;26.176;2024-01-15T08:26:38;0.80;;;0.80;;
33152;SDS011;19509;43.862;26.176;2024-01-15T08:29:03;0.80;;;0.80;;
33152;SDS011;19509;43.862;26.176;2024-01-15T08:31:28;0.73;;;0.73;;
33152;SDS011;19509;43.862;26.176;2024-01-15T08:33:54;0.80;;;0.80;;
33152;SDS011;19509;43.862;26.176;2024-01-15T08:36:20;0.83;;;0.83;;
33152;SDS011;19509;43.862;26.176;2024-01-15T08:38:46;0.70;;;0.70;;
33152;SDS011;19509;43.862;26.176;2024-01-15T08:41:11;0.67;;;0.67;;
33152;SDS011;19509;43.862;26.176;2024-01-15T08:43:37;0.70;;;0.70;;
33152;SDS011;19509;43.862;26.176;2024-01-15T08:46:02;0.60;;;0.60;;
33152;SDS011;19509;43.862;26.176;2024-01-15T08:48:28;0.70;;;0.70;;
33152;SDS011;19509;43.862;26.176;2024-01-15T08:50:53;0.80;;;0.80;;
33152;SDS011;19509;43.862;26.176;2024-01-15T08:53:19;0.57;;;0.57;;
33152;SDS011;19509;43.862;26.176;2024-01-15T08:55:45;0.70;;;0.70;;
33152;SDS011;19509;43.862;26.176;2024-01-15T08:58:10;0.50;;;0.50;;
33152;SDS011;19509;43.862;26.176;2024-01-15T09:00:35;0.50;;;0.50;;
33152;SDS011;19509;43.862;26.176;2024-01-15T09:03:01;0.60;;;0.60;;
33152;SDS011;19509;43.862;26.176;2024-01-15T09:05:27;0.53;;;0.53;;
33152;SDS011;19509;43.862;26.176;2024-01-15T09:07:52;0.60;;;0.60;;
33152;SDS011;19509;43.862;26.176;2024-01-15T09:10:18;0.60;;;0.60;;
33152;SDS011;19509;43.862;26.176;2024-01-15T09:12:43;0.57;;;0.57;;
33152;SDS011;19509;43.862;26.176;2024-01-15T09:15:09;0.60;;;0.60;;
33152;SDS011;19509;43.862;26.176;2024-01-15T09:17:34;0.60;;;0.60;;
33152;SDS011;19509;43.862;26.176;2024-01-15T09:20:00;0.60;;;0.60;;
33152;SDS011;19509;43.862;26.176;2024-01-15T09:22:25;0.60;;;0.60;;
33152;SDS011;19509;43.862;26.176;2024-01-15T09:24:51;0.57;;;0.57;;
33152;SDS011;19509;43.862;26.176;2024-01-15T09:27:16;0.60;;;0.60;;
33152;SDS011;19509;43.862;26.176;2024-01-15T09:29:42;0.60;;;0.60;;
33152;SDS011;19509;43.862;26.176;2024-01-15T09:32:08;0.50;;;0.50;;
33152;SDS011;19509;43.862;26.176;2024-01-15T09:34:33;0.60;;;0.60;;
33152;SDS011;19509;43.862;26.176;2024-01-15T09:36:59;0.70;;;0.70;;
33152;SDS011;19509;43.862;26.176;2024-01-15T09:39:29;0.50;;;0.50;;
33152;SDS011;19509;43.862;26.176;2024-01-15T09:41:54;0.50;;;0.50;;
33152;SDS011;19509;43.862;26.176;2024-01-15T09:44:20;0.50;;;0.50;;
33152;SDS011;19509;43.862;26.176;2024-01-15T09:46:46;0.60;;;0.60;;
33152;SDS011;19509;43.862;26.176;2024-01-15T09:49:11;0.50;;;0.50;;
33152;SDS011;19509;43.862;26.176;2024-01-15T09:51:37;0.60;;;0.60;;
33152;SDS011;19509;43.862;26.176;2024-01-15T09:54:04;0.60;;;0.60;;
33152;SDS011;19509;43.862;26.176;2024-01-15T09:56:30;0.50;;;0.50;;
33152;SDS011;19509;43.862;26.176;2024-01-15T09:58:55;0.50;;;0.50;;
33152;SDS011;19509;43.862;26.176;2024-01-15T10:01:22;0.50;;;0.50;;
33152;SDS011;19509;43.862;26.176;2024-01-15T10:03:47;0.50;;;0.50;;
33152;SDS011;19509;43.862;26.176;2024-01-15T10:06:16;0.60;;;0.60;;
33152;SDS011;19509;43.862;26.176;2024-01-15T10:08:42;0.50;;;0.50;;
33152;SDS011;19509;43.862;26.176;2024-01-15T10:11:09;0.60;;;0.60;;
33152;SDS011;19509;43.862;26.176;2024-01-15T10:13:34;0.60;;;0.60;;
33152;SDS011;19509;43.862;26.176;2024-01-15T10:16:00;0.50;;;0.50;;
33152;SDS011;19509;43.862;26.176;2024-01-15T10:18:28;0.50;;;0.50;;
33152;SDS011;19509;43.862;26.176;2024-01-15T10:20:53;0.40;;;0.40;;
33152;SDS011;19509;43.862;26.176;2024-01-15T10:23:18;0.50;;;0.50;;
33152;SDS011;19509;43.862;26.176;2024-01-15T10:25:44;0.40;;;0.40;;
33152;SDS011;19509;43.862;26.176;2024-01-15T10:28:09;0.40;;;0.40;;
33152;SDS011;19509;43.862;26.176;2024-01-15T10:30:35;0.50;;;0.50;;
33152;SDS011;19509;43.862;26.176;2024-01-15T10:33:01;0.50;;;0.50;;
33152;SDS011;19509;43.862;26.176;2024-01-15T10:35:27;0.50;;;0.50;;
33152;SDS011;19509;43.862;26.176;2024-01-15T10:37:53;0.50;;;0.50;;
33152;SDS011;19509;43.862;26.176;2024-01-15T10:40:18;0.50;;;0.50;;
33152;SDS011;19509;43.862;26.176;2024-01-15T10:42:44;0.50;;;0.50;;
33152;SDS011;19509;43.862;26.176;2024-01-15T10:45:09;0.60;;;0.60;;
33152;SDS011;19509;43.862;26.176;2024-01-15T10:47:34;0.83;;;0.83;;
33152;SDS011;19509;43.862;26.176;2024-01-15T10:50:01;0.60;;;0.60;;
33152;SDS011;19509;43.862;26.176;2024-01-15T10:52:27;0.40;;;0.40;;
33152;SDS011;19509;43.862;26.176;2024-01-15T10:54:53;0.87;;;0.87;;
33152;SDS011;19509;43.862;26.176;2024-01-15T10:57:18;0.40;;;0.40;;
33152;SDS011;19509;43.862;26.176;2024-01-15T10:59:46;0.60;;;0.60;;
33152;SDS011;19509;43.862;26.176;2024-01-15T11:02:12;0.60;;;0.60;;
33152;SDS011;19509;43.862;26.176;2024-01-15T11:04:38;0.40;;;0.40;;
33152;SDS011;19509;43.862;26.176;2024-01-15T11:07:03;0.40;;;0.40;;
33152;SDS011;19509;43.862;26.176;2024-01-15T11:09:30;0.53;;;0.53;;
33152;SDS011;19509;43.862;26.176;2024-01-15T11:12:09;0.70;;;0.70;;
33152;SDS011;19509;43.862;26.176;2024-01-15T11:17:02;1.30;;;1.30;;
33152;SDS011;19509;43.862;26.176;2024-01-15T11:19:37;1.50;;;1.50;;
33152;SDS011;19509;43.862;26.176;2024-01-15T11:22:07;0.50;;;0.50;;
33152;SDS011;19509;43.862;26.176;2024-01-15T11:24:36;0.70;;;0.70;;
33152;SDS011;19509;43.862;26.176;2024-01-15T11:27:02;0.80;;;0.80;;
33152;SDS011;19509;43.862;26.176;2024-01-15T11:31:57;0.70;;;0.70;;
33152;SDS011;19509;43.862;26.176;2024-01-15T11:34:49;0.60;;;0.60;;
33152;SDS011;19509;43.862;26.176;2024-01-15T11:37:08;0.50;;;0.50;;
33152;SDS011;19509;43.862;26.176;2024-01-15T11:39:40;0.50;;;0.50;;
33152;SDS011;19509;43.862;26.176;2024-01-15T11:42:08;0.50;;;0.50;;
33152;SDS011;19509;43.862;26.176;2024-01-15T11:44:33;0.50;;;0.50;;
33152;SDS011;19509;43.862;26.176;2024-01-15T11:47:03;0.50;;;0.50;;
33152;SDS011;19509;43.862;26.176;2024-01-15T11:52:12;0.90;;;0.90;;
33152;SDS011;19509;43.862;26.176;2024-01-15T11:54:39;0.50;;;0.50;;
33152;SDS011;19509;43.862;26.176;2024-01-15T11:57:09;0.60;;;0.60;;
33152;SDS011;19509;43.862;26.176;2024-01-15T11:59:35;0.60;;;0.60;;
33152;SDS011;19509;43.862;26.176;2024-01-15T12:02:01;0.60;;;0.60;;
33152;SDS011;19509;43.862;26.176;2024-01-15T12:04:27;0.50;;;0.50;;
33152;SDS011;19509;43.862;26.176;2024-01-15T12:06:52;0.50;;;0.50;;
33152;SDS011;19509;43.862;26.176;2024-01-15T12:09:20;0.50;;;0.50;;
33152;SDS011;19509;43.862;26.176;2024-01-15T12:11:50;0.53;;;0.53;;
33152;SDS011;19509;43.862;26.176;2024-01-15T12:14:16;0.60;;;0.60;;
33152;SDS011;19509;43.862;26.176;2024-01-15T12:16:42;0.50;;;0.50;;
33152;SDS011;19509;43.862;26.176;2024-01-15T12:19:07;0.53;;;0.53;;
33152;SDS011;19509;43.862;26.176;2024-01-15T12:21:32;0.50;;;0.50;;
33152;SDS011;19509;43.862;26.176;2024-01-15T12:23:58;0.53;;;0.53;;
33152;SDS011;19509;43.862;26.176;2024-01-15T12:26:24;0.50;;;0.50;;
33152;SDS011;19509;43.862;26.176;2024-01-15T12:28:50;0.60;;;0.60;;
33152;SDS011;19509;43.862;26.176;2024-01-15T12:31:16;0.40;;;0.40;;
33152;SDS011;19509;43.862;26.176;2024-01-15T12:33:41;0.50;;;0.50;;
33152;SDS011;19509;43.862;26.176;2024-01-15T12:36:07;0.60;;;0.60;;
33152;SDS011;19509;43.862;26.176;2024-01-15T12:38:33;0.60;;;0.60;;
33152;SDS011;19509;43.862;26.176;2024-01-15T12:41:00;0.50;;;0.50;;
33152;SDS011;19509;43.862;26.176;2024-01-15T12:43:25;0.87;;;0.87;;
33152;SDS011;19509;43.862;26.176;2024-01-15T12:45:50;0.80;;;0.80;;
33152;SDS011;19509;43.862;26.176;2024-01-15T12:48:16;0.73;;;0.73;;
33152;SDS011;19509;43.862;26.176;2024-01-15T12:50:42;0.50;;;0.50;;
33152;SDS011;19509;43.862;26.176;2024-01-15T12:53:08;0.50;;;0.50;;
33152;SDS011;19509;43.862;26.176;2024-01-15T12:55:33;0.70;;;0.70;;
33152;SDS011;19509;43.862;26.176;2024-01-15T12:57:59;0.63;;;0.63;;
33152;SDS011;19509;43.862;26.176;2024-01-15T13:00:24;0.60;;;0.60;;
33152;SDS011;19509;43.862;26.176;2024-01-15T13:02:51;0.83;;;0.83;;
33152;SDS011;19509;43.862;26.176;2024-01-15T13:05:16;0.50;;;0.50;;
33152;SDS011;19509;43.862;26.176;2024-01-15T13:07:42;1.20;;;1.20;;
33152;SDS011;19509;43.862;26.176;2024-01-15T13:10:07;1.60;;;1.60;;
33152;SDS011;19509;43.862;26.176;2024-01-15T13:12:34;1.30;;;1.30;;
33152;SDS011;19509;43.862;26.176;2024-01-15T13:14:59;0.70;;;0.70;;
33152;SDS011;19509;43.862;26.176;2024-01-15T13:17:25;0.90;;;0.90;;
33152;SDS011;19509;43.862;26.176;2024-01-15T13:19:50;1.23;;;1.23;;
33152;SDS011;19509;43.862;26.176;2024-01-15T13:22:15;1.10;;;1.10;;
33152;SDS011;19509;43.862;26.176;2024-01-15T13:24:41;0.60;;;0.60;;
33152;SDS011;19509;43.862;26.176;2024-01-15T13:27:06;0.70;;;0.70;;
33152;SDS011;19509;43.862;26.176;2024-01-15T13:29:32;0.73;;;0.73;;
33152;SDS011;19509;43.862;26.176;2024-01-15T13:31:57;0.60;;;0.60;;
33152;SDS011;19509;43.862;26.176;2024-01-15T13:34:23;0.60;;;0.60;;
33152;SDS011;19509;43.862;26.176;2024-01-15T13:36:49;0.40;;;0.40;;
33152;SDS011;19509;43.862;26.176;2024-01-15T13:39:15;0.50;;;0.50;;
33152;SDS011;19509;43.862;26.176;2024-01-15T13:41:45;0.43;;;0.43;;
33152;SDS011;19509;43.862;26.176;2024-01-15T13:44:10;0.43;;;0.43;;
33152;SDS011;19509;43.862;26.176;2024-01-15T13:46:35;0.50;;;0.50;;
33152;SDS011;19509;43.862;26.176;2024-01-15T13:49:00;0.50;;;0.50;;
33152;SDS011;19509;43.862;26.176;2024-01-15T13:51:27;0.60;;;0.60;;
33152;SDS011;19509;43.862;26.176;2024-01-15T13:53:52;0.40;;;0.40;;
33152;SDS011;19509;43.862;26.176;2024-01-15T13:56:18;0.40;;;0.40;;
33152;SDS011;19509;43.862;26.176;2024-01-15T13:58:43;0.47;;;0.47;;
33152;SDS011;19509;43.862;26.176;2024-01-15T14:01:09;0.40;;;0.40;;
33152;SDS011;19509;43.862;26.176;2024-01-15T14:03:35;0.50;;;0.50;;
33152;SDS011;19509;43.862;26.176;2024-01-15T14:06:01;0.50;;;0.50;;
33152;SDS011;19509;43.862;26.176;2024-01-15T14:08:28;0.40;;;0.40;;
33152;SDS011;19509;43.862;26.176;2024-01-15T14:10:54;0.50;;;0.50;;
33152;SDS011;19509;43.862;26.176;2024-01-15T14:13:20;0.50;;;0.50;;
33152;SDS011;19509;43.862;26.176;2024-01-15T14:15:46;0.50;;;0.50;;
33152;SDS011;19509;43.862;26.176;2024-01-15T14:18:13;0.57;;;0.57;;
33152;SDS011;19509;43.862;26.176;2024-01-15T14:20:39;0.50;;;0.50;;
33152;SDS011;19509;43.862;26.176;2024-01-15T14:23:04;0.50;;;0.50;;
33152;SDS011;19509;43.862;26.176;2024-01-15T14:25:29;0.60;;;0.60;;
33152;SDS011;19509;43.862;26.176;2024-01-15T14:27:55;0.60;;;0.60;;
33152;SDS011;19509;43.862;26.176;2024-01-15T14:30:20;0.60;;;0.60;;
33152;SDS011;19509;43.862;26.176;2024-01-15T14:32:45;0.90;;;0.90;;
33152;SDS011;19509;43.862;26.176;2024-01-15T14:35:11;1.70;;;1.70;;